Time;durP1;ratioP1;P1;durP2;ratioP2;P2;SDS_P1;SDS_P2;PMS_P1;PMS_P2;Temp;Humidity;BMP_temperature;BMP_pressure;BME280_temperature;BME280_humidity;BME280_pressure;Samples;Min_cycle;Max_cycle;Signal;HPM_P1;HPM_P2
2021/11/25 00:01:52;;;;;;;;;;;;;;;;;;5066223;28;20298;-47
2021/11/25 00:04:18;;;;;;;;;;;;;;;;;;5066223;28;19920;-48
2021/11/25 00:06:44;;;;;;;;;;;;;;;;;;5062998;28;19916;-48
2021/11/25 00:09:10;;;;;;;;;;;;;;;;;;5062379;28;19916;-47
2021/11/25 00:11:36;;;;;;;;;;;;;;;;;;5064691;28;19920;-47
2021/11/25 00:14:02;;;;;;;;;;;;;;;;;;5066667;28;19916;-47
2021/11/25 00:16:28;;;;;;;;;;;;;;;;;;5066583;28;19954;-50
2021/11/25 00:18:54;;;;;;;;;;;;;;;;;;5063612;28;19912;-50
2021/11/25 00:21:20;;;;;;;;;;;;;;;;;;5065908;28;19912;-48
2021/11/25 00:23:46;;;;;;;;;;;;;;;;;;5066137;28;19909;-49
2021/11/25 00:26:12;;;;;;;;;;;;;;;;;;5066036;28;20303;-48
2021/11/25 00:28:38;;;;;;;;;;;;;;;;;;5063162;28;19995;-48
2021/11/25 00:31:04;;;;;;;;;;;;;;;;;;5056701;28;19909;-49
2021/11/25 00:33:30;;;;;;;;;;;;;;;;;;5066403;28;19958;-50
2021/11/25 00:35:56;;;;;;;;;;;;;;;;;;5054610;28;19916;-50
2021/11/25 00:38:22;;;;;;;;;;;;;;;;;;5054301;28;20030;-47
2021/11/25 00:40:48;;;;;;;;;;;;;;;;;;5046320;28;19952;-51
2021/11/25 00:43:14;;;;;;;;;;;;;;;;;;5045415;28;19909;-51
2021/11/25 00:45:40;;;;;;;;;;;;;;;;;;5046722;28;20358;-50
2021/11/25 00:48:05;;;;;;;;;;;;;;;;;;5046114;28;19917;-50
2021/11/25 00:50:31;;;;;;;;;;;;;;;;;;5045111;28;19960;-49
2021/11/25 00:52:57;;;;;;;;;;;;;;;;;;5046142;28;19909;-49
2021/11/25 00:55:23;;;;;;;;;;;;;;;;;;5043633;28;19917;-51
2021/11/25 00:57:49;;;;;;;;;;;;;;;;;;5046062;28;19913;-49
2021/11/25 01:00:15;;;;;;;;;;;;;;;;;;5058351;28;19916;-47
2021/11/25 01:02:41;;;;;;;;;;;;;;;;;;5064670;28;19913;-50
2021/11/25 01:05:07;;;;;;;;;;;;;;;;;;5066649;28;20311;-50
2021/11/25 01:07:33;;;;;;;;;;;;;;;;;;5065332;28;19909;-50
2021/11/25 01:09:59;;;;;;;;;;;;;;;;;;5060395;28;19919;-49
2021/11/25 01:12:28;;;;;;;;;;;;;;;;;;5065405;28;19921;-48
2021/11/25 01:14:53;;;;;;;;;;;;;;;;;;5682403;22;20322;-73
2021/11/25 01:17:19;;;;;;;;;;;;;;;;;;5026105;28;19913;-75
2021/11/25 01:19:45;;;;;;;;;;;;;;;;;;5028010;28;19917;-75
2021/11/25 01:22:11;;;;;;;;;;;;;;;;;;5028986;28;19948;-75
2021/11/25 01:24:37;;;;;;;;;;;;;;;;;;5030117;28;19990;-75
2021/11/25 01:27:03;;;;;;;;;;;;;;;;;;5029397;28;19920;-75
2021/11/25 01:29:29;;;;;;;;;;;;;;;;;;5026850;28;19917;-76
2021/11/25 01:31:55;;;;;;;;;;;;;;;;;;5029342;28;19913;-75
2021/11/25 01:34:21;;;;;;;;;;;;;;;;;;5029003;28;19917;-75
2021/11/25 01:36:48;;;;;;;;;;;;;;;;;;5029106;28;19913;-75
2021/11/25 01:39:16;;;;;;;;;;;;;;;;;;5027708;28;19913;-73
2021/11/25 01:41:42;;;;;;;;;;;;;;;;;;5028910;28;19913;-74
2021/11/25 01:44:08;;;;;;;;;;;;;;;;;;5029010;28;20392;-73
2021/11/25 01:46:34;;;;;;;;;;;;;;;;;;5027668;28;19959;-73
2021/11/25 01:49:00;;;;;;;;;;;;;;;;;;5027174;28;19917;-72
2021/11/25 01:51:26;;;;;;;;;;;;;;;;;;5028055;28;19920;-72
2021/11/25 01:53:52;;;;;;;;;;;;;;;;;;5028802;28;19913;-73
2021/11/25 01:56:18;;;;;;;;;;;;;;;;;;5028601;28;19909;-74
2021/11/25 01:58:44;;;;;;;;;;;;;;;;;;5027329;28;20425;-73
2021/11/25 02:01:10;;;;;;;;;;;;;;;;;;5028371;28;20580;-74
2021/11/25 02:03:36;;;;;;;;;;;;;;;;;;5029478;28;19913;-73
2021/11/25 02:06:02;;;;;;;;;;;;;;;;;;5028627;28;19979;-72
2021/11/25 02:08:28;;;;;;;;;;;;;;;;;;5026881;28;20003;-73
2021/11/25 02:10:54;;;;;;;;;;;;;;;;;;5027939;28;19910;-72
2021/11/25 02:13:20;;;;;;;;;;;;;;;;;;5027534;28;19936;-73
2021/11/25 02:15:46;;;;;;;;;;;;;;;;;;5024610;28;19983;-72
2021/11/25 02:18:12;;;;;;;;;;;;;;;;;;5027946;28;20020;-74
2021/11/25 02:20:38;;;;;;;;;;;;;;;;;;5027919;28;19940;-73
2021/11/25 02:23:04;;;;;;;;;;;;;;;;;;5027696;28;20331;-74
2021/11/25 02:25:29;;;;;;;;;;;;;;;;;;5028046;28;19967;-75
2021/11/25 02:27:55;;;;;;;;;;;;;;;;;;5024048;28;19925;-74
2021/11/25 02:30:21;;;;;;;;;;;;;;;;;;5028201;28;20027;-75
2021/11/25 02:32:47;;;;;;;;;;;;;;;;;;5027222;28;19935;-74
2021/11/25 02:35:13;;;;;;;;;;;;;;;;;;5027744;28;20003;-74
2021/11/25 02:37:39;;;;;;;;;;;;;;;;;;5026702;28;19921;-73
2021/11/25 02:40:05;;;;;;;;;;;;;;;;;;5028097;28;19909;-73
2021/11/25 02:42:31;;;;;;;;;;;;;;;;;;5027739;28;19967;-73
2021/11/25 02:44:57;;;;;;;;;;;;;;;;;;5026489;28;19966;-73
2021/11/25 02:47:23;;;;;;;;;;;;;;;;;;5026451;28;19917;-73
2021/11/25 02:49:49;;;;;;;;;;;;;;;;;;5027790;28;19909;-73
2021/11/25 02:52:15;;;;;;;;;;;;;;;;;;5027607;28;20635;-73
2021/11/25 02:54:41;;;;;;;;;;;;;;;;;;5027869;28;19919;-73
2021/11/25 02:57:07;;;;;;;;;;;;;;;;;;5027197;28;19932;-74
2021/11/25 02:59:33;;;;;;;;;;;;;;;;;;5027312;28;20020;-74
2021/11/25 03:01:59;;;;;;;;;;;;;;;;;;5027525;28;19909;-74
2021/11/25 03:04:25;;;;;;;;;;;;;;;;;;5027559;28;20004;-73
2021/11/25 03:06:51;;;;;;;;;;;;;;;;;;5027253;28;19917;-74
2021/11/25 03:09:18;;;;;;;;;;;;;;;;;;5026698;28;19913;-74
2021/11/25 03:11:45;;;;;;;;;;;;;;;;;;5027429;28;20330;-73
2021/11/25 03:14:11;;;;;;;;;;;;;;;;;;5026261;28;19917;-73
2021/11/25 03:16:37;;;;;;;;;;;;;;;;;;5026666;28;19928;-73
2021/11/25 03:19:03;;;;;;;;;;;;;;;;;;5024809;28;19909;-73
2021/11/25 03:21:32;;;;;;;;;;;;;;;;;;5026162;28;19917;-73
2021/11/25 03:23:57;;;;;;;;;;;;;;;;;;5025300;28;19920;-74
2021/11/25 03:26:23;;;;;;;;;;;;;;;;;;5027138;28;19913;-74
2021/11/25 03:28:49;;;;;;;;;;;;;;;;;;5024834;28;19916;-75
2021/11/25 03:31:15;;;;;;;;;;;;;;;;;;5027048;28;20295;-75
2021/11/25 03:33:41;;;;;;;;;;;;;;;;;;5026884;28;19920;-75
2021/11/25 03:36:07;;;;;;;;;;;;;;;;;;5027200;28;19920;-74
2021/11/25 03:38:34;;;;;;;;;;;;;;;;;;5024866;28;19909;-73
2021/11/25 03:41:00;;;;;;;;;;;;;;;;;;5026393;28;19920;-74
2021/11/25 03:43:26;;;;;;;;;;;;;;;;;;5025850;28;19913;-74
2021/11/25 03:45:52;;;;;;;;;;;;;;;;;;5027203;28;20391;-73
2021/11/25 03:48:18;;;;;;;;;;;;;;;;;;5024632;28;19920;-73
2021/11/25 03:50:44;;;;;;;;;;;;;;;;;;5024490;28;19913;-72
2021/11/25 03:53:10;;;;;;;;;;;;;;;;;;5026525;28;19955;-72
2021/11/25 03:55:36;;;;;;;;;;;;;;;;;;5026993;28;19928;-73
2021/11/25 03:58:02;;;;;;;;;;;;;;;;;;5026922;28;19917;-72
2021/11/25 04:00:31;;;;;;;;;;;;;;;;;;5024147;28;19909;-73
2021/11/25 04:02:57;;;;;;;;;;;;;;;;;;5026082;28;19917;-73
2021/11/25 04:05:23;;;;;;;;;;;;;;;;;;5026943;28;20663;-74
2021/11/25 04:07:49;;;;;;;;;;;;;;;;;;5026932;28;19913;-73
2021/11/25 04:10:14;;;;;;;;;;;;;;;;;;5024908;28;19909;-74
2021/11/25 04:12:41;;;;;;;;;;;;;;;;;;5026653;28;19998;-74
2021/11/25 04:15:07;;;;;;;;;;;;;;;;;;5024983;28;20569;-74
2021/11/25 04:17:32;;;;;;;;;;;;;;;;;;5026183;28;19918;-75
2021/11/25 04:19:58;;;;;;;;;;;;;;;;;;5024814;28;19967;-75
2021/11/25 04:22:24;;;;;;;;;;;;;;;;;;5026712;28;19981;-74
2021/11/25 04:24:50;;;;;;;;;;;;;;;;;;5026762;28;20008;-74
2021/11/25 04:27:16;;;;;;;;;;;;;;;;;;5026182;28;19917;-74
2021/11/25 04:29:46;;;;;;;;;;;;;;;;;;5026567;28;20050;-74
2021/11/25 04:37:41;;;;;;;;;;;;;;;;;;5026622;28;20004;-73
2021/11/25 04:40:07;;;;;;;;;;;;;;;;;;5025283;28;19996;-73
2021/11/25 04:42:33;;;;;;;;;;;;;;;;;;5026181;28;19909;-73
2021/11/25 04:44:59;;;;;;;;;;;;;;;;;;5026064;28;19963;-73
2021/11/25 04:47:25;;;;;;;;;;;;;;;;;;5026878;28;20008;-73
2021/11/25 04:49:51;;;;;;;;;;;;;;;;;;5025955;28;19975;-72
2021/11/25 04:52:16;;;;;;;;;;;;;;;;;;5026709;28;19917;-72
2021/11/25 04:54:42;;;;;;;;;;;;;;;;;;5030153;28;20015;-72
2021/11/25 04:57:08;;;;;;;;;;;;;;;;;;5030253;28;19905;-72
2021/11/25 04:59:34;;;;;;;;;;;;;;;;;;5030185;28;19909;-73
2021/11/25 05:02:00;;;;;;;;;;;;;;;;;;5027731;28;19914;-73
2021/11/25 05:04:26;;;;;;;;;;;;;;;;;;5029536;28;19916;-73
2021/11/25 05:06:52;;;;;;;;;;;;;;;;;;5030458;28;19928;-74
2021/11/25 05:09:18;;;;;;;;;;;;;;;;;;5028232;28;19924;-74
2021/11/25 05:11:44;;;;;;;;;;;;;;;;;;5028627;28;20015;-74
2021/11/25 05:14:10;;;;;;;;;;;;;;;;;;5029519;28;19969;-74
2021/11/25 05:16:36;;;;;;;;;;;;;;;;;;5029674;28;19917;-74
2021/11/25 05:19:02;;;;;;;;;;;;;;;;;;5028827;28;20692;-75
2021/11/25 05:21:30;;;;;;;;;;;;;;;;;;5028490;28;21291;-74
2021/11/25 05:23:56;;;;;;;;;;;;;;;;;;5029844;28;19909;-75
2021/11/25 05:26:22;;;;;;;;;;;;;;;;;;5029518;28;19979;-74
2021/11/25 05:28:48;;;;;;;;;;;;;;;;;;5027687;28;19917;-74
2021/11/25 05:31:14;;;;;;;;;;;;;;;;;;5026662;28;19913;-74
2021/11/25 05:33:41;;;;;;;;;;;;;;;;;;5027929;28;19913;-73
2021/11/25 05:36:07;;;;;;;;;;;;;;;;;;5028556;28;20422;-73
2021/11/25 05:38:33;;;;;;;;;;;;;;;;;;5029211;28;19940;-74
2021/11/25 05:40:59;;;;;;;;;;;;;;;;;;5029423;28;19905;-73
2021/11/25 05:43:25;;;;;;;;;;;;;;;;;;5027769;28;19979;-73
2021/11/25 05:45:51;;;;;;;;;;;;;;;;;;5027982;28;19913;-73
2021/11/25 05:48:17;;;;;;;;;;;;;;;;;;5028838;28;20703;-72
2021/11/25 05:50:43;;;;;;;;;;;;;;;;;;5029149;28;19940;-72
2021/11/25 05:53:09;;;;;;;;;;;;;;;;;;5029089;28;19909;-73
2021/11/25 05:55:35;;;;;;;;;;;;;;;;;;5027591;28;20027;-72
2021/11/25 05:58:01;;;;;;;;;;;;;;;;;;5028774;28;19909;-72
2021/11/25 06:00:27;;;;;;;;;;;;;;;;;;5026504;28;19917;-72
2021/11/25 06:02:53;;;;;;;;;;;;;;;;;;5021747;28;19957;-73
2021/11/25 06:05:20;;;;;;;;;;;;;;;;;;5027278;28;19920;-71
2021/11/25 06:07:47;;;;;;;;;;;;;;;;;;5028759;28;20082;-71
2021/11/25 06:10:13;;;;;;;;;;;;;;;;;;5028362;28;20471;-72
2021/11/25 06:12:39;;;;;;;;;;;;;;;;;;5028388;28;20000;-73
2021/11/25 06:15:05;;;;;;;;;;;;;;;;;;5027332;28;19921;-73
2021/11/25 06:17:31;;;;;;;;;;;;;;;;;;5028195;28;19909;-73
2021/11/25 06:19:57;;;;;;;;;;;;;;;;;;5027397;28;19909;-73
2021/11/25 06:22:23;;;;;;;;;;;;;;;;;;5029066;28;20008;-73
2021/11/25 06:24:49;;;;;;;;;;;;;;;;;;5026430;28;20044;-73
2021/11/25 06:27:15;;;;;;;;;;;;;;;;;;5028336;28;19920;-73
2021/11/25 06:29:41;;;;;;;;;;;;;;;;;;5028479;28;19932;-74
2021/11/25 06:32:07;;;;;;;;;;;;;;;;;;5028303;28;19909;-72
2021/11/25 06:34:33;;;;;;;;;;;;;;;;;;5027098;28;20581;-72
2021/11/25 06:36:59;;;;;;;;;;;;;;;;;;5028439;28;20027;-72
2021/11/25 06:39:25;;;;;;;;;;;;;;;;;;5026843;28;19915;-72
2021/11/25 06:41:52;;;;;;;;;;;;;;;;;;5018987;28;19909;-71
2021/11/25 06:44:18;;;;;;;;;;;;;;;;;;5007564;28;20041;-73
2021/11/25 06:46:44;;;;;;;;;;;;;;;;;;5018783;28;20019;-72
2021/11/25 06:49:09;;;;;;;;;;;;;;;;;;5027614;28;19964;-72
2021/11/25 06:51:36;;;;;;;;;;;;;;;;;;5027774;28;19905;-72
2021/11/25 06:54:01;;;;;;;;;;;;;;;;;;5027845;28;19955;-71
2021/11/25 06:56:27;;;;;;;;;;;;;;;;;;5027079;28;19913;-71
2021/11/25 06:58:56;;;;;;;;;;;;;;;;;;5026632;28;19967;-68
2021/11/25 07:01:23;;;;;;;;;;;;;;;;;;5026985;28;19921;-70
2021/11/25 07:03:49;;;;;;;;;;;;;;;;;;5024419;28;19991;-69
2021/11/25 07:06:15;;;;;;;;;;;;;;;;;;5025335;28;20007;-69
2021/11/25 07:08:41;;;;;;;;;;;;;;;;;;5021334;28;19913;-72
2021/11/25 07:11:07;;;;;;;;;;;;;;;;;;5026190;28;20436;-72
2021/11/25 07:13:33;;;;;;;;;;;;;;;;;;5025758;28;19920;-72
2021/11/25 07:15:59;;;;;;;;;;;;;;;;;;5027072;28;19983;-73
2021/11/25 07:18:25;;;;;;;;;;;;;;;;;;5027524;28;19916;-73
2021/11/25 07:20:51;;;;;;;;;;;;;;;;;;5027279;28;19967;-71
2021/11/25 07:23:17;;;;;;;;;;;;;;;;;;5027357;28;19975;-71
2021/11/25 07:25:43;;;;;;;;;;;;;;;;;;5027537;28;19940;-71
2021/11/25 07:28:09;;;;;;;;;;;;;;;;;;5027025;28;20421;-72
2021/11/25 07:30:35;;;;;;;;;;;;;;;;;;5027014;28;19920;-72
2021/11/25 07:33:01;;;;;;;;;;;;;;;;;;5025741;28;19913;-72
2021/11/25 07:35:27;;;;;;;;;;;;;;;;;;5020641;28;20276;-71
2021/11/25 07:37:53;;;;;;;;;;;;;;;;;;5019013;28;19914;-71
2021/11/25 07:40:19;;;;;;;;;;;;;;;;;;5032971;28;19917;-71
2021/11/25 07:42:45;;;;;;;;;;;;;;;;;;5025688;28;19920;-68
2021/11/25 07:45:11;;;;;;;;;;;;;;;;;;5020823;28;19909;-68
2021/11/25 07:47:37;;;;;;;;;;;;;;;;;;5032245;28;19984;-68
2021/11/25 07:50:03;;;;;;;;;;;;;;;;;;5025526;28;19920;-68
2021/11/25 07:52:29;;;;;;;;;;;;;;;;;;5026699;28;19917;-66
2021/11/25 07:54:55;;;;;;;;;;;;;;;;;;5025524;28;19916;-68
2021/11/25 07:57:21;;;;;;;;;;;;;;;;;;5027436;28;19917;-66
2021/11/25 07:59:47;;;;;;;;;;;;;;;;;;5025837;28;19932;-69
2021/11/25 08:02:16;;;;;;;;;;;;;;;;;;5020597;28;20299;-71
2021/11/25 08:04:42;;;;;;;;;;;;;;;;;;5024329;28;19913;-64
2021/11/25 08:07:08;;;;;;;;;;;;;;;;;;5026666;28;19921;-68
2021/11/25 08:09:34;;;;;;;;;;;;;;;;;;5026932;28;19967;-68
2021/11/25 08:12:00;;;;;;;;;;;;;;;;;;5026078;28;19916;-68
2021/11/25 08:14:26;;;;;;;;;;;;;;;;;;5023900;28;19913;-67
2021/11/25 08:16:57;;;;;;;;;;;;;;;;;;5024571;28;20012;-67
2021/11/25 08:19:23;;;;;;;;;;;;;;;;;;5011017;28;19919;-67
2021/11/25 08:21:49;;;;;;;;;;;;;;;;;;5024749;28;20395;-66
2021/11/25 08:24:15;;;;;;;;;;;;;;;;;;5024107;28;19913;-67
2021/11/25 08:26:41;;;;;;;;;;;;;;;;;;5028496;28;20265;-68
2021/11/25 08:29:07;;;;;;;;;;;;;;;;;;5031798;28;19913;-67
2021/11/25 08:31:33;;;;;;;;;;;;;;;;;;5031076;28;20023;-68
2021/11/25 08:33:59;;;;;;;;;;;;;;;;;;5027542;28;19924;-68
2021/11/25 08:36:25;;;;;;;;;;;;;;;;;;5021484;28;19909;-68
2021/11/25 08:38:51;;;;;;;;;;;;;;;;;;5028484;28;19921;-68
2021/11/25 08:41:17;;;;;;;;;;;;;;;;;;5027521;28;19924;-69
2021/11/25 08:43:44;;;;;;;;;;;;;;;;;;5020399;28;19909;-69
2021/11/25 08:46:11;;;;;;;;;;;;;;;;;;5028785;28;19944;-68
2021/11/25 08:48:37;;;;;;;;;;;;;;;;;;5028439;28;19917;-68
2021/11/25 08:51:03;;;;;;;;;;;;;;;;;;5027837;28;20241;-67
2021/11/25 08:53:29;;;;;;;;;;;;;;;;;;5028929;28;19933;-68
2021/11/25 08:55:55;;;;;;;;;;;;;;;;;;5031011;28;19979;-69
2021/11/25 08:58:21;;;;;;;;;;;;;;;;;;5028103;28;19916;-68
2021/11/25 09:00:47;;;;;;;;;;;;;;;;;;5034556;28;20074;-67
2021/11/25 09:03:13;;;;;;;;;;;;;;;;;;5022604;28;19917;-67
2021/11/25 09:05:40;;;;;;;;;;;;;;;;;;5027603;28;19921;-68
2021/11/25 09:08:06;;;;;;;;;;;;;;;;;;5028530;28;20410;-67
2021/11/25 09:10:35;;;;;;;;;;;;;;;;;;5030183;28;19917;-68
2021/11/25 09:13:02;;;;;;;;;;;;;;;;;;5030610;28;19920;-67
2021/11/25 09:15:28;;;;;;;;;;;;;;;;;;5028391;28;19921;-69
2021/11/25 09:17:54;;;;;;;;;;;;;;;;;;5031104;28;19913;-69
2021/11/25 09:20:20;;;;;;;;;;;;;;;;;;5030061;28;19917;-69
2021/11/25 09:22:46;;;;;;;;;;;;;;;;;;5020176;28;20384;-69
2021/11/25 09:25:12;;;;;;;;;;;;;;;;;;5018523;28;20414;-70
2021/11/25 09:27:38;;;;;;;;;;;;;;;;;;5030309;28;19913;-69
2021/11/25 09:30:04;;;;;;;;;;;;;;;;;;5029809;28;20019;-69
2021/11/25 09:32:30;;;;;;;;;;;;;;;;;;5030037;28;19917;-69
2021/11/25 09:34:56;;;;;;;;;;;;;;;;;;5027602;28;19952;-70
2021/11/25 09:37:22;;;;;;;;;;;;;;;;;;5029760;28;19940;-69
2021/11/25 09:39:47;;;;;;;;;;;;;;;;;;5023843;28;19914;-68
2021/11/25 09:42:14;;;;;;;;;;;;;;;;;;5027525;28;19917;-69
2021/11/25 09:44:40;;;;;;;;;;;;;;;;;;5029279;28;19921;-69
2021/11/25 09:47:06;;;;;;;;;;;;;;;;;;5030791;28;19931;-70
2021/11/25 09:49:33;;;;;;;;;;;;;;;;;;5035509;28;20016;-70
2021/11/25 09:51:59;;;;;;;;;;;;;;;;;;5028817;28;19913;-69
2021/11/25 09:54:25;;;;;;;;;;;;;;;;;;5029921;28;19919;-71
2021/11/25 09:56:51;;;;;;;;;;;;;;;;;;5030496;28;19920;-70
2021/11/25 09:59:17;;;;;;;;;;;;;;;;;;5029242;28;19999;-70
2021/11/25 10:01:43;;;;;;;;;;;;;;;;;;5028900;28;19915;-71
2021/11/25 10:04:09;;;;;;;;;;;;;;;;;;5016985;28;20039;-70
2021/11/25 10:06:37;;;;;;;;;;;;;;;;;;5027017;28;19917;-70
2021/11/25 10:09:03;;;;;;;;;;;;;;;;;;5030437;28;20447;-70
2021/11/25 10:11:29;;;;;;;;;;;;;;;;;;5026359;28;20206;-70
2021/11/25 10:13:55;;;;;;;;;;;;;;;;;;5029879;28;19917;-70
2021/11/25 10:16:21;;;;;;;;;;;;;;;;;;5033196;28;20020;-70
2021/11/25 10:18:47;;;;;;;;;;;;;;;;;;5028299;28;20011;-69
2021/11/25 10:21:13;;;;;;;;;;;;;;;;;;5018819;28;20273;-71
2021/11/25 10:23:39;;;;;;;;;;;;;;;;;;5036186;28;19917;-71
2021/11/25 10:26:05;;;;;;;;;;;;;;;;;;5019395;28;19914;-72
2021/11/25 10:28:31;;;;;;;;;;;;;;;;;;5035045;28;19917;-71
2021/11/25 10:30:57;;;;;;;;;;;;;;;;;;5031834;28;20314;-72
2021/11/25 10:33:25;;;;;;;;;;;;;;;;;;5029032;28;19916;-73
2021/11/25 10:36:04;;;;;;;;;;;;;;;;;;5028948;28;19920;-72
2021/11/25 10:38:39;;;;;;;;;;;;;;;;;;5028518;28;19921;-72
2021/11/25 10:41:04;;;;;;;;;;;;;;;;;;5025921;28;19924;-72
2021/11/25 10:43:31;;;;;;;;;;;;;;;;;;5028279;28;19913;-73
2021/11/25 10:45:57;;;;;;;;;;;;;;;;;;5028815;28;19909;-72
2021/11/25 10:48:23;;;;;;;;;;;;;;;;;;5028597;28;19925;-72
2021/11/25 10:50:49;;;;;;;;;;;;;;;;;;5027765;28;19913;-72
2021/11/25 10:53:15;;;;;;;;;;;;;;;;;;5028074;28;19947;-72
2021/11/25 10:55:43;;;;;;;;;;;;;;;;;;5027556;28;20003;-71
2021/11/25 10:58:12;;;;;;;;;;;;;;;;;;5024873;28;20284;-73
2021/11/25 11:00:37;;;;;;;;;;;;;;;;;;5026170;28;19916;-72
2021/11/25 11:03:04;;;;;;;;;;;;;;;;;;5027196;28;20327;-73
2021/11/25 11:05:30;;;;;;;;;;;;;;;;;;5025791;28;20008;-74
2021/11/25 11:07:56;;;;;;;;;;;;;;;;;;5027671;28;20502;-74
2021/11/25 11:10:22;;;;;;;;;;;;;;;;;;5027251;28;19913;-72
2021/11/25 11:12:59;;;;;;;;;;;;;;;;;;5026799;28;19909;-72
2021/11/25 11:20:31;;;;;;;;;;;;;;;;;;5008897;28;19920;-74
2021/11/25 11:22:58;;;;;;;;;;;;;;;;;;5027751;28;19909;-74
2021/11/25 11:25:23;;;;;;;;;;;;;;;;;;5028586;28;19917;-74
2021/11/25 11:27:49;;;;;;;;;;;;;;;;;;5027907;28;19921;-72
2021/11/25 11:30:15;;;;;;;;;;;;;;;;;;5027722;28;19967;-71
2021/11/25 11:32:41;;;;;;;;;;;;;;;;;;5028042;28;19913;-71
2021/11/25 11:35:08;;;;;;;;;;;;;;;;;;5028015;28;19951;-71
2021/11/25 11:37:33;;;;;;;;;;;;;;;;;;5028073;28;19916;-71
2021/11/25 11:39:59;;;;;;;;;;;;;;;;;;5026935;28;19917;-71
2021/11/25 11:42:25;;;;;;;;;;;;;;;;;;5027002;28;19917;-74
2021/11/25 11:44:51;;;;;;;;;;;;;;;;;;5027785;28;19995;-74
2021/11/25 11:47:17;;;;;;;;;;;;;;;;;;5027321;28;20032;-72
2021/11/25 11:49:48;;;;;;;;;;;;;;;;;;5027705;28;19909;-72
2021/11/25 11:52:14;;;;;;;;;;;;;;;;;;5027160;28;19913;-72
2021/11/25 11:54:40;;;;;;;;;;;;;;;;;;5027457;28;19951;-71
2021/11/25 11:57:06;;;;;;;;;;;;;;;;;;5027544;28;19948;-70
2021/11/25 11:59:32;;;;;;;;;;;;;;;;;;5023803;28;20410;-72
2021/11/25 12:01:58;;;;;;;;;;;;;;;;;;5025884;28;19909;-74
2021/11/25 12:04:25;;;;;;;;;;;;;;;;;;5024234;28;19919;-72
2021/11/25 12:06:52;;;;;;;;;;;;;;;;;;5026646;28;19921;-73
2021/11/25 12:09:18;;;;;;;;;;;;;;;;;;5027141;28;19909;-74
2021/11/25 12:11:44;;;;;;;;;;;;;;;;;;5027055;28;19936;-73
2021/11/25 12:14:10;;;;;;;;;;;;;;;;;;5025744;28;19917;-72
2021/11/25 12:16:36;;;;;;;;;;;;;;;;;;5025515;28;19961;-74
2021/11/25 12:19:03;;;;;;;;;;;;;;;;;;5027531;28;20374;-73
2021/11/25 12:21:29;;;;;;;;;;;;;;;;;;5026752;28;19917;-73
2021/11/25 12:23:55;;;;;;;;;;;;;;;;;;5027822;28;20510;-73
2021/11/25 12:26:21;;;;;;;;;;;;;;;;;;5026657;28;20156;-74
2021/11/25 12:28:47;;;;;;;;;;;;;;;;;;5027360;28;19917;-73
2021/11/25 12:33:42;;;;;;;;;;;;;;;;;;5027571;28;19913;-73
2021/11/25 12:36:08;;;;;;;;;;;;;;;;;;5027246;28;19913;-73
2021/11/25 12:38:35;;;;;;;;;;;;;;;;;;5027210;28;19920;-73
2021/11/25 12:41:01;;;;;;;;;;;;;;;;;;5025291;28;20299;-70
2021/11/25 12:43:27;;;;;;;;;;;;;;;;;;5021986;28;19914;-73
2021/11/25 12:45:54;;;;;;;;;;;;;;;;;;5027918;28;20287;-72
2021/11/25 12:48:20;;;;;;;;;;;;;;;;;;5026991;28;20402;-72
2021/11/25 12:50:50;;;;;;;;;;;;;;;;;;5024605;28;19931;-73
2021/11/25 12:53:16;;;;;;;;;;;;;;;;;;5016122;28;19913;-73
2021/11/25 12:55:43;;;;;;;;;;;;;;;;;;5023181;28;20288;-78
2021/11/25 12:58:09;;;;;;;;;;;;;;;;;;5020207;28;19913;-75
2021/11/25 13:00:36;;;;;;;;;;;;;;;;;;5025288;28;19917;-73
2021/11/25 13:03:03;;;;;;;;;;;;;;;;;;5024055;28;19963;-76
2021/11/25 13:05:28;;;;;;;;;;;;;;;;;;5024987;28;19913;-74
2021/11/25 13:07:57;;;;;;;;;;;;;;;;;;5025029;28;19917;-74
2021/11/25 13:10:23;;;;;;;;;;;;;;;;;;5025760;28;19920;-74
2021/11/25 13:12:49;;;;;;;;;;;;;;;;;;5024395;28;19914;-74
2021/11/25 13:15:15;;;;;;;;;;;;;;;;;;5029158;28;20000;-75
2021/11/25 13:17:41;;;;;;;;;;;;;;;;;;5031124;28;20011;-75
2021/11/25 13:20:07;;;;;;;;;;;;;;;;;;5029648;28;20397;-75
2021/11/25 13:22:33;;;;;;;;;;;;;;;;;;5034259;28;19913;-75
2021/11/25 13:25:02;;;;;;;;;;;;;;;;;;5030017;28;19979;-76
2021/11/25 13:27:28;;;;;;;;;;;;;;;;;;5030110;28;20414;-76
2021/11/25 13:29:56;;;;;;;;;;;;;;;;;;5030586;28;19909;-75
2021/11/25 13:32:22;;;;;;;;;;;;;;;;;;5045895;28;20020;-76
2021/11/25 13:34:48;;;;;;;;;;;;;;;;;;5028892;28;19995;-76
2021/11/25 13:37:14;;;;;;;;;;;;;;;;;;5043609;28;20302;-74
2021/11/25 13:39:40;;;;;;;;;;;;;;;;;;5036077;28;19913;-74
2021/11/25 13:42:07;;;;;;;;;;;;;;;;;;5029426;28;19943;-74
2021/11/25 13:44:33;;;;;;;;;;;;;;;;;;5024840;28;19979;-75
2021/11/25 13:46:59;;;;;;;;;;;;;;;;;;5029482;28;19913;-69
2021/11/25 13:49:31;;;;;;;;;;;;;;;;;;5030074;28;19959;-74
2021/11/25 13:51:57;;;;;;;;;;;;;;;;;;5027233;28;20004;-72
2021/11/25 13:54:23;;;;;;;;;;;;;;;;;;5026749;28;19995;-75
2021/11/25 13:56:49;;;;;;;;;;;;;;;;;;5024178;28;20036;-72
2021/11/25 13:59:19;;;;;;;;;;;;;;;;;;5021631;28;20021;-67
2021/11/25 14:01:45;;;;;;;;;;;;;;;;;;5027330;28;19913;-71
2021/11/25 14:04:11;;;;;;;;;;;;;;;;;;5026731;28;19917;-70
2021/11/25 14:06:37;;;;;;;;;;;;;;;;;;5027329;28;19917;-70
2021/11/25 14:09:03;;;;;;;;;;;;;;;;;;5028704;28;19913;-70
2021/11/25 14:11:29;;;;;;;;;;;;;;;;;;5028950;28;19949;-70
2021/11/25 14:13:55;;;;;;;;;;;;;;;;;;5028145;28;19954;-71
2021/11/25 14:16:21;;;;;;;;;;;;;;;;;;5048800;28;19929;-68
2021/11/25 14:18:47;;;;;;;;;;;;;;;;;;5030170;28;19917;-67
2021/11/25 14:21:13;;;;;;;;;;;;;;;;;;5028582;28;20306;-67
2021/11/25 14:23:39;;;;;;;;;;;;;;;;;;5025677;28;19909;-67
2021/11/25 14:26:05;;;;;;;;;;;;;;;;;;5038320;28;20415;-68
2021/11/25 14:31:19;;;;;;;;;;;;;;;;;;5029880;28;20872;-73
2021/11/25 14:33:46;;;;;;;;;;;;;;;;;;5033637;28;20430;-76
2021/11/25 14:36:12;;;;;;;;;;;;;;;;;;5029217;28;19920;-72
2021/11/25 14:38:38;;;;;;;;;;;;;;;;;;5030891;28;19924;-75
2021/11/25 14:41:04;;;;;;;;;;;;;;;;;;5045227;28;19909;-73
2021/11/25 14:43:30;;;;;;;;;;;;;;;;;;5031352;28;19924;-78
2021/11/25 14:45:56;;;;;;;;;;;;;;;;;;5026396;28;19999;-75
2021/11/25 14:48:23;;;;;;;;;;;;;;;;;;5027697;28;19925;-71
2021/11/25 14:50:49;;;;;;;;;;;;;;;;;;5044910;28;20007;-75
2021/11/25 14:53:18;;;;;;;;;;;;;;;;;;5027217;28;19944;-76
2021/11/25 14:55:44;;;;;;;;;;;;;;;;;;5024642;28;19974;-70
2021/11/25 14:58:11;;;;;;;;;;;;;;;;;;5022998;28;20267;-73
2021/11/25 15:00:37;;;;;;;;;;;;;;;;;;5024107;28;19916;-74
2021/11/25 15:03:04;;;;;;;;;;;;;;;;;;5020230;28;20399;-73
2021/11/25 15:05:30;;;;;;;;;;;;;;;;;;5027073;28;19935;-72
2021/11/25 15:07:59;;;;;;;;;;;;;;;;;;5028226;28;19940;-73
2021/11/25 15:10:25;;;;;;;;;;;;;;;;;;5028529;28;19910;-73
2021/11/25 15:12:51;;;;;;;;;;;;;;;;;;5025871;28;19928;-75
2021/11/25 15:15:18;;;;;;;;;;;;;;;;;;5026720;28;19947;-74
2021/11/25 15:17:44;;;;;;;;;;;;;;;;;;5027623;28;20307;-74
2021/11/25 15:20:11;;;;;;;;;;;;;;;;;;5023566;28;19913;-72
2021/11/25 15:22:37;;;;;;;;;;;;;;;;;;5017376;28;19920;-73
2021/11/25 15:25:04;;;;;;;;;;;;;;;;;;5026183;28;20307;-74
2021/11/25 15:27:31;;;;;;;;;;;;;;;;;;5026861;28;19921;-73
2021/11/25 15:29:58;;;;;;;;;;;;;;;;;;5025551;28;19967;-73
2021/11/25 15:32:25;;;;;;;;;;;;;;;;;;5027071;28;19909;-73
2021/11/25 15:34:53;;;;;;;;;;;;;;;;;;5026079;28;19916;-74
2021/11/25 15:37:21;;;;;;;;;;;;;;;;;;5025617;28;19917;-73
2021/11/25 15:39:47;;;;;;;;;;;;;;;;;;5025354;28;19960;-74
2021/11/25 15:42:13;;;;;;;;;;;;;;;;;;5025872;28;19948;-73
2021/11/25 15:44:39;;;;;;;;;;;;;;;;;;5023877;28;20344;-73
2021/11/25 15:47:05;;;;;;;;;;;;;;;;;;5025906;28;19971;-75
2021/11/25 15:49:32;;;;;;;;;;;;;;;;;;5025000;28;19913;-73
2021/11/25 15:51:58;;;;;;;;;;;;;;;;;;5025513;28;19986;-71
2021/11/25 15:54:24;;;;;;;;;;;;;;;;;;5025858;28;19909;-72
2021/11/25 15:56:51;;;;;;;;;;;;;;;;;;5024402;28;20457;-72
2021/11/25 15:59:17;;;;;;;;;;;;;;;;;;5024488;28;19917;-70
2021/11/25 16:01:43;;;;;;;;;;;;;;;;;;5024314;28;19975;-70
2021/11/25 16:04:14;;;;;;;;;;;;;;;;;;5025000;28;20399;-71
2021/11/25 16:06:40;;;;;;;;;;;;;;;;;;5025168;28;19909;-70
2021/11/25 16:09:06;;;;;;;;;;;;;;;;;;5025219;28;20299;-70
2021/11/25 16:11:31;;;;;;;;;;;;;;;;;;5024586;28;19913;-71
2021/11/25 16:14:04;;;;;;;;;;;;;;;;;;5023782;28;20012;-72
2021/11/25 16:16:30;;;;;;;;;;;;;;;;;;5025206;28;19964;-72
2021/11/25 16:18:56;;;;;;;;;;;;;;;;;;5025786;28;19948;-71
2021/11/25 16:21:21;;;;;;;;;;;;;;;;;;5025072;28;20437;-71
2021/11/25 16:23:48;;;;;;;;;;;;;;;;;;5023572;28;19913;-70
2021/11/25 16:26:14;;;;;;;;;;;;;;;;;;5025232;28;20396;-71
2021/11/25 16:28:40;;;;;;;;;;;;;;;;;;5024198;28;19940;-71
2021/11/25 16:31:07;;;;;;;;;;;;;;;;;;5023985;28;19909;-71
2021/11/25 16:33:33;;;;;;;;;;;;;;;;;;5024401;28;20398;-71
2021/11/25 16:35:59;;;;;;;;;;;;;;;;;;5024886;28;20007;-71
2021/11/25 16:38:25;;;;;;;;;;;;;;;;;;5024141;28;19909;-72
2021/11/25 16:40:51;;;;;;;;;;;;;;;;;;5024733;28;20368;-72
2021/11/25 16:43:17;;;;;;;;;;;;;;;;;;5024080;28;20099;-71
2021/11/25 16:45:43;;;;;;;;;;;;;;;;;;5025064;28;19913;-69
2021/11/25 16:50:41;;;;;;;;;;;;;;;;;;5028470;28;20365;-71
2021/11/25 16:53:07;;;;;;;;;;;;;;;;;;5028843;28;19913;-70
2021/11/25 16:55:33;;;;;;;;;;;;;;;;;;5028141;28;19913;-68
2021/11/25 16:58:00;;;;;;;;;;;;;;;;;;5028638;28;19996;-69